Time;durP1;ratioP1;P1;durP2;ratioP2;P2;SDS_P1;SDS_P2;PMS_P1;PMS_P2;Temp;Humidity;BMP_temperature;BMP_pressure;BME280_temperature;BME280_humidity;BME280_pressure;Samples;Min_cycle;Max_cycle;Signal;HPM_P1;HPM_P2
2021/10/13 00:00:24;;;;;;;33.50;14.70;;;;;;;5.01;99.94;101290.98;115776;1191;59033;-79
2021/10/13 00:02:51;;;;;;;38.20;15.70;;;;;;;4.99;99.84;101289.55;115840;1191;59035;-79
2021/10/13 00:05:18;;;;;;;33.80;15.20;;;;;;;4.99;99.98;101285.20;115809;1192;74095;-79
2021/10/13 00:07:44;;;;;;;33.90;15.80;;;;;;;4.99;100.00;101288.52;115845;1192;71175;-79
2021/10/13 00:10:11;;;;;;;29.60;16.80;;;;;;;4.96;100.00;101282.46;115739;1192;72518;-79
2021/10/13 00:12:37;;;;;;;32.80;16.90;;;;;;;4.98;100.00;101287.38;115784;1191;61579;-79
2021/10/13 00:15:08;;;;;;;34.00;14.90;;;;;;;4.99;100.00;101288.73;115768;1192;60517;-78
2021/10/13 00:17:36;;;;;;;31.80;15.10;;;;;;;4.98;100.00;101291.03;115758;1191;74651;-78
2021/10/13 00:20:05;;;;;;;29.00;14.40;;;;;;;4.96;100.00;101293.17;115769;1191;71172;-79
2021/10/13 00:22:31;;;;;;;38.00;19.70;;;;;;;4.94;100.00;101292.27;115796;1191;73536;-79
2021/10/13 00:24:58;;;;;;;40.30;18.00;;;;;;;4.93;100.00;101292.04;115640;1192;62240;-79
2021/10/13 00:27:24;;;;;;;40.80;18.20;;;;;;;4.91;100.00;101292.65;115883;1191;59369;-79
2021/10/13 00:29:51;;;;;;;44.50;20.00;;;;;;;4.89;100.00;101289.87;115661;1192;60908;-79
2021/10/13 00:32:18;;;;;;;36.90;18.20;;;;;;;4.88;100.00;101292.07;115813;1192;59423;-79
2021/10/13 00:34:44;;;;;;;42.20;19.80;;;;;;;4.86;100.00;101294.61;115766;1192;72619;-79
2021/10/13 00:37:11;;;;;;;39.80;17.00;;;;;;;4.84;100.00;101296.70;115796;1191;58984;-79
2021/10/13 00:39:37;;;;;;;34.00;14.40;;;;;;;4.83;100.00;101298.88;115791;1191;59005;-78
2021/10/13 00:42:04;;;;;;;40.60;20.80;;;;;;;4.81;100.00;101298.35;115768;1191;59340;-79
2021/10/13 00:44:31;;;;;;;45.10;20.70;;;;;;;4.79;100.00;101296.59;115743;1184;72041;-78
2021/10/13 00:47:00;;;;;;;45.70;22.20;;;;;;;4.79;100.00;101300.15;115846;1191;74109;-79
2021/10/13 00:49:27;;;;;;;46.30;21.40;;;;;;;4.78;100.00;101307.01;115797;1192;61917;-79
2021/10/13 00:51:54;;;;;;;39.30;21.00;;;;;;;4.77;100.00;101305.91;115808;1191;60245;-78
2021/10/13 00:54:22;;;;;;;42.90;21.20;;;;;;;4.76;100.00;101312.09;115776;1191;75936;-78
2021/10/13 00:56:49;;;;;;;48.30;22.30;;;;;;;4.75;100.00;101312.73;115797;1191;71781;-78
2021/10/13 00:59:15;;;;;;;43.60;21.00;;;;;;;4.74;100.00;101309.11;115756;1191;72685;-79
2021/10/13 01:02:03;;;;;;;46.90;19.80;;;;;;;4.73;100.00;101310.25;115805;1192;58933;-79
2021/10/13 01:05:11;;;;;;;48.50;22.40;;;;;;;4.73;100.00;101308.71;115512;1191;60662;-77
2021/10/13 01:08:18;;;;;;;42.80;23.10;;;;;;;4.71;100.00;101312.67;115354;1191;75493;-80
2021/10/13 01:11:03;;;;;;;49.40;23.80;;;;;;;4.68;100.00;101312.03;115667;1192;71427;-78
2021/10/13 01:13:49;;;;;;;52.10;25.30;;;;;;;4.66;100.00;101315.18;115485;1192;73645;-79
2021/10/13 01:16:26;;;;;;;54.10;25.50;;;;;;;4.64;100.00;101314.80;115590;1192;63839;-80
2021/10/13 01:19:20;;;;;;;52.00;24.20;;;;;;;4.64;100.00;101312.02;115644;1192;60956;-81
2021/10/13 01:22:14;;;;;;;53.60;23.80;;;;;;;4.62;100.00;101312.30;115662;1192;74545;-80
2021/10/13 01:25:10;;;;;;;51.70;26.50;;;;;;;4.61;100.00;101312.06;115707;1192;70988;-80
2021/10/13 01:27:54;;;;;;;51.20;26.00;;;;;;;4.60;100.00;101310.88;115753;1192;72865;-80
2021/10/13 01:30:24;;;;;;;64.70;29.80;;;;;;;4.60;100.00;101312.69;115793;1191;61918;-80
2021/10/13 01:33:01;;;;;;;48.60;25.30;;;;;;;4.59;100.00;101313.98;115821;1192;61062;-80
2021/10/13 01:35:30;;;;;;;57.20;29.50;;;;;;;4.58;100.00;101315.65;115827;1192;73311;-80
2021/10/13 01:38:04;;;;;;;63.30;26.20;;;;;;;4.58;100.00;101322.44;115830;1191;71958;-80
2021/10/13 01:40:33;;;;;;;77.60;32.00;;;;;;;4.59;100.00;101322.72;115702;1192;73571;-81
2021/10/13 01:43:03;;;;;;;75.80;29.60;;;;;;;4.62;100.00;101327.42;115789;1191;64158;-81
2021/10/13 01:45:32;;;;;;;65.60;25.80;;;;;;;4.66;100.00;101324.48;115870;1191;59998;-81
2021/10/13 01:48:02;;;;;;;64.20;23.80;;;;;;;4.69;100.00;101328.44;115789;1191;74573;-81
2021/10/13 01:50:29;;;;;;;85.90;32.10;;;;;;;4.72;100.00;101326.83;115813;1191;72478;-80
2021/10/13 01:52:58;;;;;;;88.20;30.50;;;;;;;4.76;100.00;101327.17;115834;1191;73581;-81
2021/10/13 01:55:26;;;;;;;83.00;31.90;;;;;;;4.79;100.00;101326.78;115806;1191;61901;-81
2021/10/13 01:57:58;;;;;;;78.30;30.60;;;;;;;4.81;100.00;101329.70;115854;1192;60222;-80
2021/10/13 02:00:26;;;;;;;98.30;34.70;;;;;;;4.85;100.00;101331.86;115827;1191;75631;-80
2021/10/13 02:02:54;;;;;;;70.50;26.30;;;;;;;4.89;100.00;101329.11;115798;1192;71425;-80
2021/10/13 02:05:23;;;;;;;81.70;32.30;;;;;;;4.92;100.00;101330.84;115770;1192;73949;-80
2021/10/13 02:07:52;;;;;;;69.40;25.50;;;;;;;4.95;100.00;101331.78;115890;1191;62083;-81
2021/10/13 02:10:21;;;;;;;69.60;27.00;;;;;;;4.98;100.00;101333.68;115765;1192;60019;-80
2021/10/13 02:12:52;;;;;;;97.40;34.10;;;;;;;5.00;100.00;101333.52;115814;1191;75775;-80
2021/10/13 02:15:20;;;;;;;70.80;25.40;;;;;;;5.02;100.00;101338.11;115764;1191;72022;-80
2021/10/13 02:17:51;;;;;;;81.70;30.70;;;;;;;5.04;100.00;101337.34;115820;1192;72533;-80
2021/10/13 02:20:19;;;;;;;88.00;32.00;;;;;;;5.08;100.00;101334.23;115741;1191;62070;-81
2021/10/13 02:22:52;;;;;;;84.40;33.80;;;;;;;5.11;100.00;101333.16;115798;1192;60262;-81
2021/10/13 02:25:19;;;;;;;74.60;32.10;;;;;;;5.13;100.00;101332.98;115806;1191;74606;-81
2021/10/13 02:28:01;;;;;;;81.90;33.50;;;;;;;5.16;100.00;101337.09;115739;1192;72292;-81
2021/10/13 02:30:28;;;;;;;86.00;30.60;;;;;;;5.21;100.00;101339.01;115789;1191;71637;-81
2021/10/13 02:32:55;;;;;;;67.30;26.80;;;;;;;5.24;100.00;101342.27;116104;1192;61917;-80
2021/10/13 02:35:22;;;;;;;78.40;30.60;;;;;;;5.27;100.00;101346.42;115867;1191;61238;-81
2021/10/13 02:37:49;;;;;;;77.90;29.80;;;;;;;5.29;100.00;101346.96;115747;1192;74530;-81
2021/10/13 02:40:15;;;;;;;72.30;23.60;;;;;;;5.29;100.00;101349.73;115876;1191;71947;-79
2021/10/13 02:42:42;;;;;;;72.80;31.90;;;;;;;5.27;100.00;101354.80;115756;1192;72619;-79
2021/10/13 02:45:09;;;;;;;77.40;29.00;;;;;;;5.26;100.00;101354.67;115747;1192;63134;-78
2021/10/13 02:47:41;;;;;;;89.80;31.90;;;;;;;5.24;100.00;101360.30;115835;1192;60615;-78
2021/10/13 02:50:10;;;;;;;86.90;32.40;;;;;;;5.23;100.00;101365.30;115831;1184;75533;-78
2021/10/13 02:53:19;;;;;;;71.30;26.90;;;;;;;5.22;100.00;101365.34;115788;1192;70999;-78
2021/10/13 02:55:59;;;;;;;59.70;19.60;;;;;;;5.21;100.00;101369.69;115799;1192;72896;-80
2021/10/13 02:58:47;;;;;;;85.00;32.80;;;;;;;5.19;100.00;101370.73;115791;1192;60582;-81
2021/10/13 03:01:16;;;;;;;71.10;24.50;;;;;;;5.15;100.00;101374.16;115842;1192;60610;-80
2021/10/13 03:04:04;;;;;;;80.10;29.80;;;;;;;5.14;100.00;101373.59;115798;1191;75755;-80
2021/10/13 03:06:37;;;;;;;88.50;31.10;;;;;;;5.13;100.00;101378.77;115446;1192;71113;-80
2021/10/13 03:09:05;;;;;;;75.90;28.40;;;;;;;5.15;100.00;101378.45;115588;1191;73450;-80
2021/10/13 03:11:34;;;;;;;85.80;28.90;;;;;;;5.17;100.00;101379.15;115625;1191;61602;-81
2021/10/13 03:14:02;;;;;;;73.40;21.90;;;;;;;5.20;100.00;101378.50;115659;1191;60686;-82
2021/10/13 03:16:29;;;;;;;103.20;29.90;;;;;;;5.22;100.00;101382.05;115634;1192;75745;-79
2021/10/13 03:18:57;;;;;;;60.40;17.40;;;;;;;5.24;100.00;101380.63;115722;1192;72216;-79
2021/10/13 03:21:27;;;;;;;61.80;21.70;;;;;;;5.24;100.00;101379.58;115807;1192;73785;-79
2021/10/13 03:23:55;;;;;;;61.10;18.20;;;;;;;5.23;100.00;101378.10;115742;1192;63388;-79
2021/10/13 03:26:21;;;;;;;66.40;24.20;;;;;;;5.20;100.00;101381.66;115842;1192;60243;-79
2021/10/13 03:28:48;;;;;;;60.70;23.70;;;;;;;5.18;100.00;101377.13;115745;1192;75364;-79
2021/10/13 03:31:17;;;;;;;69.20;26.70;;;;;;;5.16;100.00;101376.60;115834;1192;71130;-79
2021/10/13 03:33:49;;;;;;;66.60;25.50;;;;;;;5.15;100.00;101382.75;115857;1192;72623;-80
2021/10/13 03:36:16;;;;;;;59.80;19.60;;;;;;;5.16;100.00;101382.55;115848;1192;62021;-79
2021/10/13 03:38:43;;;;;;;73.50;23.10;;;;;;;5.17;100.00;101384.73;115845;1192;59330;-79
2021/10/13 03:41:10;;;;;;;74.70;26.10;;;;;;;5.17;100.00;101381.61;115884;1192;75460;-79
2021/10/13 03:43:47;;;;;;;68.80;26.10;;;;;;;5.18;100.00;101387.09;115855;1192;71020;-79
2021/10/13 03:46:19;;;;;;;83.70;27.80;;;;;;;5.19;100.00;101394.20;115844;1191;72749;-79
2021/10/13 03:48:50;;;;;;;76.80;28.30;;;;;;;5.19;100.00;101393.48;115847;1192;63056;-79
2021/10/13 03:51:18;;;;;;;48.40;14.90;;;;;;;5.21;100.00;101390.39;115816;1192;60235;-78
2021/10/13 03:53:44;;;;;;;77.70;27.40;;;;;;;5.22;100.00;101395.05;115812;1192;74538;-83
2021/10/13 03:56:12;;;;;;;92.80;29.70;;;;;;;5.24;100.00;101392.36;115848;1191;71150;-79
2021/10/13 03:58:39;;;;;;;89.70;29.40;;;;;;;5.27;100.00;101394.27;115871;1191;73620;-80
2021/10/13 04:01:06;;;;;;;82.30;25.30;;;;;;;5.30;100.00;101392.48;115889;1191;64421;-79
2021/10/13 04:03:33;;;;;;;75.20;24.60;;;;;;;5.33;100.00;101401.03;115865;1192;60145;-79
2021/10/13 04:06:00;;;;;;;75.70;24.30;;;;;;;5.34;100.00;101401.66;115815;1192;75928;-79
2021/10/13 04:08:27;;;;;;;78.40;26.00;;;;;;;5.34;100.00;101411.80;115828;1191;72237;-79
2021/10/13 04:10:53;;;;;;;64.20;19.50;;;;;;;5.35;100.00;101408.73;115843;1183;59424;-79
2021/10/13 04:13:20;;;;;;;86.50;27.70;;;;;;;5.35;100.00;101409.59;115787;1191;59412;-79
2021/10/13 04:15:46;;;;;;;98.40;27.20;;;;;;;5.38;100.00;101411.00;115842;1191;59027;-79
2021/10/13 04:18:13;;;;;;;66.90;23.00;;;;;;;5.38;100.00;101410.58;115817;1191;75329;-79
2021/10/13 04:20:40;;;;;;;72.20;20.30;;;;;;;5.39;100.00;101411.56;115766;1191;72242;-83
2021/10/13 04:23:06;;;;;;;85.00;25.60;;;;;;;5.40;100.00;101412.39;115833;1192;58993;-79
2021/10/13 04:25:33;;;;;;;82.00;22.40;;;;;;;5.43;100.00;101416.33;115837;1191;59183;-80
2021/10/13 04:27:59;;;;;;;67.70;19.80;;;;;;;5.43;100.00;101418.61;116007;1192;61298;-80
2021/10/13 04:30:26;;;;;;;85.10;25.10;;;;;;;5.44;100.00;101416.45;115883;1192;75568;-79
2021/10/13 04:32:52;;;;;;;94.40;28.50;;;;;;;5.43;100.00;101417.72;115836;1192;70946;-79
2021/10/13 04:35:19;;;;;;;83.50;25.00;;;;;;;5.43;100.00;101423.34;115927;1192;73558;-83
2021/10/13 04:37:46;;;;;;;87.20;26.30;;;;;;;5.42;100.00;101418.52;115752;1192;61989;-83
2021/10/13 04:40:13;;;;;;;88.10;23.60;;;;;;;5.42;100.00;101415.57;115849;1192;60167;-79
2021/10/13 04:42:40;;;;;;;98.30;26.00;;;;;;;5.41;100.00;101417.75;115855;1192;75624;-80
2021/10/13 04:45:06;;;;;;;84.90;26.10;;;;;;;5.41;100.00;101420.85;115881;1192;58967;-80
2021/10/13 04:47:33;;;;;;;86.40;26.00;;;;;;;5.44;100.00;101420.08;115860;1184;72621;-79
2021/10/13 04:50:00;;;;;;;94.40;27.30;;;;;;;5.48;100.00;101422.40;115874;1191;62200;-79
2021/10/13 04:52:28;;;;;;;89.80;27.70;;;;;;;5.51;100.00;101428.12;115901;1191;59221;-79
2021/10/13 04:54:55;;;;;;;85.60;28.10;;;;;;;5.53;100.00;101429.06;115796;1192;74662;-78
2021/10/13 04:57:21;;;;;;;96.50;28.50;;;;;;;5.54;100.00;101425.58;115834;1192;70172;-80
2021/10/13 04:59:48;;;;;;;85.90;24.50;;;;;;;5.58;100.00;101428.30;115821;1191;59080;-79
2021/10/13 05:02:14;;;;;;;66.40;22.80;;;;;;;5.58;100.00;101427.40;115775;1192;62180;-79
2021/10/13 05:04:41;;;;;;;90.10;24.50;;;;;;;5.59;100.00;101427.53;115913;1192;61368;-79
2021/10/13 05:07:07;;;;;;;78.40;24.30;;;;;;;5.58;100.00;101423.35;115790;1191;74630;-79
2021/10/13 05:09:35;;;;;;;74.60;26.10;;;;;;;5.60;100.00;101420.77;115547;1192;71059;-79
2021/10/13 05:12:02;;;;;;;95.00;27.20;;;;;;;5.63;100.00;101421.20;115570;1192;71943;-80
2021/10/13 05:14:29;;;;;;;79.60;26.30;;;;;;;5.67;100.00;101421.72;115703;1192;62685;-79
2021/10/13 05:16:55;;;;;;;78.20;25.60;;;;;;;5.70;100.00;101425.38;115678;1192;61717;-79
2021/10/13 05:19:21;;;;;;;69.50;21.90;;;;;;;5.73;100.00;101426.34;115548;1192;59036;-79
2021/10/13 05:21:48;;;;;;;68.20;19.70;;;;;;;5.75;100.00;101426.22;115726;1192;59507;-79
2021/10/13 05:24:15;;;;;;;76.40;25.00;;;;;;;5.74;100.00;101426.60;115736;1191;72746;-79
2021/10/13 05:26:41;;;;;;;63.80;21.30;;;;;;;5.76;100.00;101428.40;115825;1191;58987;-80
2021/10/13 05:29:08;;;;;;;56.00;18.30;;;;;;;5.73;100.00;101428.41;115781;1192;60012;-79
2021/10/13 05:31:34;;;;;;;52.60;18.40;;;;;;;5.71;100.00;101434.16;115771;1192;75879;-75
2021/10/13 05:34:01;;;;;;;71.00;24.70;;;;;;;5.73;100.00;101437.00;115803;1192;72047;-74
2021/10/13 05:36:28;;;;;;;63.40;19.10;;;;;;;5.76;100.00;101443.48;115909;1192;58913;-77
2021/10/13 05:38:55;;;;;;;86.90;25.00;;;;;;;5.77;100.00;101440.96;115485;1192;62347;-75
2021/10/13 05:41:23;;;;;;;57.00;16.50;;;;;;;5.79;100.00;101442.58;115779;1192;62286;-75
2021/10/13 05:43:50;;;;;;;67.90;20.50;;;;;;;5.79;100.00;101439.55;115869;1192;76122;-76
2021/10/13 05:46:16;;;;;;;68.40;19.30;;;;;;;5.77;100.00;101440.27;115904;1192;59022;-76
2021/10/13 05:48:43;;;;;;;72.00;22.10;;;;;;;5.75;100.00;101444.67;115816;1192;73572;-76
2021/10/13 05:51:10;;;;;;;73.70;22.20;;;;;;;5.74;100.00;101443.64;115791;1192;59078;-76
2021/10/13 05:53:36;;;;;;;69.80;19.70;;;;;;;5.74;100.00;101446.08;115830;1192;58902;-76
2021/10/13 05:56:03;;;;;;;75.30;23.20;;;;;;;5.77;100.00;101455.02;115892;1192;74310;-75
2021/10/13 05:58:30;;;;;;;78.90;23.30;;;;;;;5.80;100.00;101456.31;115706;1192;71060;-76
2021/10/13 06:00:57;;;;;;;87.20;28.90;;;;;;;5.83;100.00;101453.78;115801;1192;73691;-76
2021/10/13 06:03:24;;;;;;;66.00;16.20;;;;;;;5.87;100.00;101458.58;115919;1192;61818;-75
2021/10/13 06:05:51;;;;;;;81.90;21.90;;;;;;;5.86;100.00;101465.27;115797;1192;59479;-76
2021/10/13 06:08:17;;;;;;;94.60;25.30;;;;;;;5.87;100.00;101465.07;115817;1192;74548;-76
2021/10/13 06:10:44;;;;;;;71.20;19.40;;;;;;;5.87;100.00;101468.42;115846;1192;72050;-76
2021/10/13 06:13:10;;;;;;;66.80;15.30;;;;;;;5.88;100.00;101472.36;115868;1192;59106;-76
2021/10/13 06:15:38;;;;;;;76.60;19.30;;;;;;;5.89;100.00;101471.55;115842;1192;62673;-76
2021/10/13 06:18:06;;;;;;;96.30;28.20;;;;;;;5.92;100.00;101471.99;115893;1192;59926;-77
2021/10/13 06:20:34;;;;;;;91.20;25.40;;;;;;;5.97;100.00;101474.50;115712;1192;74377;-76
2021/10/13 06:23:01;;;;;;;92.60;29.20;;;;;;;6.00;100.00;101473.71;115851;1192;71188;-76
2021/10/13 06:25:27;;;;;;;80.70;23.20;;;;;;;6.06;100.00;101484.08;115747;1192;72666;-75
2021/10/13 06:27:54;;;;;;;91.80;27.70;;;;;;;6.10;100.00;101492.17;115618;1193;62031;-76
2021/10/13 06:30:21;;;;;;;63.90;20.20;;;;;;;6.13;100.00;101488.21;115785;1192;59924;-77
2021/10/13 06:32:47;;;;;;;81.70;25.60;;;;;;;6.18;100.00;101491.73;115912;1192;75614;-75
2021/10/13 06:35:14;;;;;;;65.00;17.90;;;;;;;6.24;100.00;101491.58;115734;1192;58963;-75
2021/10/13 06:37:41;;;;;;;70.70;25.40;;;;;;;6.29;100.00;101490.83;115849;1192;58892;-75
2021/10/13 06:40:08;;;;;;;74.50;25.80;;;;;;;6.36;100.00;101491.80;115841;1192;62009;-76
2021/10/13 06:42:35;;;;;;;73.10;26.70;;;;;;;6.43;100.00;101492.44;115836;1192;60266;-75
2021/10/13 06:45:02;;;;;;;74.30;22.50;;;;;;;6.49;100.00;101494.79;115894;1192;59200;-76
2021/10/13 06:47:28;;;;;;;66.60;25.60;;;;;;;6.55;100.00;101494.65;115888;1192;70138;-76
2021/10/13 06:49:57;;;;;;;73.80;25.40;;;;;;;6.65;100.00;101502.20;115887;1192;58997;-75
2021/10/13 06:52:24;;;;;;;67.60;26.40;;;;;;;6.75;100.00;101502.27;115846;1192;61937;-76
2021/10/13 06:54:50;;;;;;;70.60;24.70;;;;;;;6.84;100.00;101505.84;115549;1192;60017;-76
2021/10/13 06:57:17;;;;;;;58.20;25.00;;;;;;;6.96;100.00;101508.06;115592;1192;74789;-74
2021/10/13 06:59:44;;;;;;;55.40;20.30;;;;;;;7.03;100.00;101509.54;115874;1191;72209;-75
2021/10/13 07:02:10;;;;;;;78.80;25.90;;;;;;;7.11;100.00;101512.74;115794;1192;73370;-76
2021/10/13 07:04:37;;;;;;;63.20;23.20;;;;;;;7.17;100.00;101517.46;115831;1192;61904;-75
2021/10/13 07:07:03;;;;;;;78.30;27.10;;;;;;;7.24;100.00;101519.88;115843;1191;58874;-74
2021/10/13 07:09:30;;;;;;;68.70;25.00;;;;;;;7.33;100.00;101525.95;115830;1191;61024;-75
2021/10/13 07:11:56;;;;;;;77.50;27.50;;;;;;;7.38;100.00;101528.69;115834;1192;58560;-75
2021/10/13 07:14:23;;;;;;;67.70;19.90;;;;;;;7.43;100.00;101528.89;115650;1192;59035;-75
2021/10/13 07:16:50;;;;;;;59.70;22.40;;;;;;;7.48;100.00;101535.52;115784;1192;58987;-75
2021/10/13 07:19:16;;;;;;;68.10;25.50;;;;;;;7.55;100.00;101526.15;115807;1192;60269;-75
2021/10/13 07:21:43;;;;;;;60.60;20.40;;;;;;;7.64;100.00;101523.02;115721;1192;75992;-76
2021/10/13 07:24:09;;;;;;;61.30;22.70;;;;;;;7.71;100.00;101520.30;115758;1192;59544;-76
2021/10/13 07:26:36;;;;;;;54.40;18.70;;;;;;;7.77;100.00;101522.42;115809;1192;58923;-75
2021/10/13 07:29:03;;;;;;;52.70;23.30;;;;;;;7.83;99.90;101526.16;115824;1192;61846;-74
2021/10/13 07:31:29;;;;;;;57.80;19.70;;;;;;;7.92;99.92;101527.60;115867;1192;60237;-75
2021/10/13 07:33:56;;;;;;;48.90;22.80;;;;;;;8.02;99.83;101532.16;115841;1191;76760;-75
2021/10/13 07:36:23;;;;;;;61.90;23.00;;;;;;;8.11;99.13;101531.68;115860;1192;71151;-75
2021/10/13 07:38:50;;;;;;;47.20;22.00;;;;;;;8.23;98.19;101536.72;115832;1184;72564;-75
2021/10/13 07:41:18;;;;;;;53.20;24.30;;;;;;;8.28;97.89;101533.71;115776;1192;61606;-76
2021/10/13 07:43:46;;;;;;;48.90;22.30;;;;;;;8.35;97.48;101533.46;115519;1193;60330;-75
2021/10/13 07:46:14;;;;;;;50.40;21.80;;;;;;;8.36;96.34;101535.60;115847;1192;74956;-73
2021/10/13 07:48:41;;;;;;;47.70;23.10;;;;;;;8.38;96.29;101534.60;115815;1192;70693;-73
2021/10/13 07:51:08;;;;;;;48.90;19.30;;;;;;;8.42;96.24;101534.94;115876;1191;72288;-73
2021/10/13 07:53:34;;;;;;;49.60;21.40;;;;;;;8.47;96.13;101539.08;115550;1192;61997;-73
2021/10/13 07:56:01;;;;;;;44.10;17.00;;;;;;;8.50;95.44;101541.13;115824;1192;62289;-73
2021/10/13 07:58:28;;;;;;;42.10;17.40;;;;;;;8.54;95.47;101539.83;115827;1184;74952;-73
2021/10/13 08:00:54;;;;;;;43.90;19.90;;;;;;;8.59;95.57;101542.58;115860;1191;71469;-73
2021/10/13 08:03:22;;;;;;;48.00;20.20;;;;;;;8.64;95.12;101542.27;115863;1192;73920;-74
2021/10/13 08:05:50;;;;;;;47.00;19.70;;;;;;;8.70;94.98;101544.77;115781;1184;61754;-73
2021/10/13 08:08:17;;;;;;;41.50;18.30;;;;;;;8.73;94.07;101543.37;115793;1192;60258;-73
2021/10/13 08:10:43;;;;;;;44.80;18.90;;;;;;;8.72;93.31;101546.17;115834;1192;59482;-73
2021/10/13 08:13:10;;;;;;;44.80;16.30;;;;;;;8.79;93.45;101550.98;115861;1192;59368;-73
2021/10/13 08:15:37;;;;;;;38.40;19.50;;;;;;;8.86;92.94;101547.14;115800;1192;74416;-74
2021/10/13 08:18:03;;;;;;;37.00;18.20;;;;;;;8.92;93.01;101550.45;115878;1192;61904;-73
2021/10/13 08:20:30;;;;;;;39.80;15.50;;;;;;;9.00;92.45;101553.61;115821;1191;58894;-73
2021/10/13 08:22:57;;;;;;;34.50;17.30;;;;;;;9.05;91.33;101556.86;115868;1192;75307;-74
2021/10/13 08:25:23;;;;;;;41.10;17.90;;;;;;;9.07;90.60;101562.65;115499;1193;72005;-73
2021/10/13 08:27:50;;;;;;;33.50;17.50;;;;;;;9.17;90.78;101555.67;115894;1191;73056;-74
2021/10/13 08:30:16;;;;;;;34.50;15.10;;;;;;;9.32;89.79;101555.11;115877;1192;59765;-74
2021/10/13 08:32:43;;;;;;;35.10;17.50;;;;;;;9.56;90.50;101559.45;115685;1184;59076;-74
2021/10/13 08:35:09;;;;;;;33.30;14.70;;;;;;;9.80;89.63;101557.84;115713;1192;59006;-74
2021/10/13 08:37:36;;;;;;;29.80;15.00;;;;;;;9.95;88.46;101553.56;115823;1184;59181;-74
2021/10/13 08:40:06;;;;;;;27.30;15.20;;;;;;;10.10;87.60;101558.13;115815;1192;72502;-73
2021/10/13 08:42:32;;;;;;;33.20;16.60;;;;;;;10.20;86.25;101562.20;115853;1192;62680;-74
2021/10/13 08:44:59;;;;;;;32.20;14.60;;;;;;;10.35;86.62;101561.11;115802;1192;60181;-74
2021/10/13 08:47:26;;;;;;;31.90;13.80;;;;;;;10.51;84.94;101563.66;115805;1192;74550;-74
2021/10/13 08:49:53;;;;;;;27.80;15.30;;;;;;;10.57;84.14;101570.41;115771;1192;60283;-74
2021/10/13 08:52:20;;;;;;;28.00;13.40;;;;;;;10.59;83.85;101572.50;115807;1192;72488;-74
2021/10/13 08:54:47;;;;;;;24.70;13.40;;;;;;;10.56;82.79;101567.70;115843;1192;62629;-74
2021/10/13 08:57:20;;;;;;;24.10;15.00;;;;;;;10.58;82.72;101573.55;115827;1192;60362;-73
2021/10/13 08:59:50;;;;;;;32.20;14.30;;;;;;;10.56;82.98;101571.84;115861;1192;73315;-74
2021/10/13 09:02:35;;;;;;;29.30;14.00;;;;;;;10.56;83.19;101572.14;115777;1192;71185;-74
2021/10/13 09:05:06;;;;;;;;;;;;;;;10.57;83.46;101572.55;115845;1192;72513;-74
2021/10/13 09:07:33;;;;;;;20.40;10.50;;;;;;;10.55;83.23;101570.67;115787;1192;62207;-74
2021/10/13 09:09:59;;;;;;;25.60;10.40;;;;;;;10.58;83.08;101576.73;115879;1192;60258;-75
2021/10/13 09:12:38;;;;;;;20.20;11.20;;;;;;;10.64;82.88;101577.53;115816;1192;75260;-74
2021/10/13 09:15:12;;;;;;;28.40;11.00;;;;;;;10.66;82.51;101576.08;115479;1192;72008;-74
2021/10/13 09:18:00;;;;;;;20.10;10.70;;;;;;;10.65;82.48;101575.64;115625;1192;72742;-74
2021/10/13 09:20:40;;;;;;;21.80;13.40;;;;;;;10.65;83.16;101577.60;115811;1191;62810;-74
2021/10/13 09:23:28;;;;;;;29.80;14.20;;;;;;;10.66;82.39;101576.45;115869;1192;60252;-74
2021/10/13 09:26:12;;;;;;;22.20;12.40;;;;;;;10.66;81.87;101581.45;115859;1192;75670;-73
2021/10/13 09:28:41;;;;;;;24.00;14.30;;;;;;;10.67;81.84;101581.90;115862;1192;70799;-74
2021/10/13 09:31:18;;;;;;;25.60;12.50;;;;;;;10.71;81.82;101583.95;115833;1192;72567;-75
2021/10/13 09:34:03;;;;;;;20.40;11.90;;;;;;;10.72;81.26;101580.77;115814;1192;61387;-74
2021/10/13 09:36:44;;;;;;;20.10;9.20;;;;;;;10.88;81.06;101585.05;115821;1192;59922;-74
2021/10/13 09:39:14;;;;;;;25.40;11.70;;;;;;;11.01;80.04;101585.33;115761;1192;75798;-74
2021/10/13 09:42:06;;;;;;;29.70;11.30;;;;;;;11.04;79.41;101586.45;115767;1192;71971;-74
2021/10/13 09:44:42;;;;;;;20.80;8.80;;;;;;;11.12;79.27;101585.04;115823;1192;73595;-74
2021/10/13 09:47:11;;;;;;;20.50;10.30;;;;;;;11.12;79.28;101581.42;115826;1192;62725;-73
2021/10/13 09:49:48;;;;;;;17.10;7.70;;;;;;;11.06;78.59;101584.15;115849;1191;60210;-74
2021/10/13 09:52:17;;;;;;;19.50;8.40;;;;;;;11.01;77.83;101581.55;115752;1192;75606;-74
2021/10/13 09:54:46;;;;;;;15.00;9.50;;;;;;;10.95;76.86;101585.36;115735;1192;71155;-74
2021/10/13 09:57:25;;;;;;;16.80;9.00;;;;;;;10.97;77.57;101582.33;115813;1192;73552;-74
2021/10/13 10:00:05;;;;;;;20.80;9.60;;;;;;;11.06;77.22;101578.13;115707;1192;62962;-74
2021/10/13 10:03:00;;;;;;;21.90;10.00;;;;;;;11.17;76.58;101580.09;115835;1191;60325;-74
2021/10/13 10:05:32;;;;;;;17.10;8.70;;;;;;;11.25;76.14;101583.26;115843;1192;74972;-74
2021/10/13 10:08:10;;;;;;;17.90;7.60;;;;;;;11.31;75.94;101585.45;115855;1192;72445;-74
2021/10/13 10:10:58;;;;;;;21.00;9.00;;;;;;;11.38;76.06;101584.33;115629;1192;72823;-74
2021/10/13 10:13:41;;;;;;;33.70;11.10;;;;;;;11.57;75.97;101579.07;115838;1192;63023;-74
2021/10/13 10:16:11;;;;;;;17.80;7.90;;;;;;;11.67;74.39;101579.41;115812;1191;60028;-74
2021/10/13 10:18:39;;;;;;;19.20;8.00;;;;;;;11.73;73.46;101580.06;115232;1191;76561;-74
2021/10/13 10:21:20;;;;;;;18.90;7.70;;;;;;;11.77;73.85;101576.79;115811;1191;71079;-74
2021/10/13 10:23:55;;;;;;;14.70;7.00;;;;;;;11.86;73.45;101578.54;115862;1192;73944;-74
2021/10/13 10:26:24;;;;;;;;;;;;;;;11.93;72.53;101578.65;115833;1191;63530;-74
2021/10/13 10:28:51;;;;;;;19.00;7.50;;;;;;;11.98;72.77;101583.69;115795;1192;60415;-74
2021/10/13 10:31:27;;;;;;;17.30;7.90;;;;;;;12.02;72.08;101578.28;115822;1191;74902;-74
2021/10/13 10:34:06;;;;;;;21.90;8.30;;;;;;;12.07;71.91;101577.17;115879;1191;71041;-73
2021/10/13 10:36:35;;;;;;;19.80;7.70;;;;;;;12.14;71.71;101578.38;115764;1192;72694;-74
2021/10/13 10:39:08;;;;;;;11.60;6.30;;;;;;;12.27;71.70;101574.05;115728;1191;61900;-74
2021/10/13 10:41:42;;;;;;;18.90;7.50;;;;;;;12.42;72.29;101577.55;115800;1192;60054;-74
2021/10/13 10:44:44;;;;;;;17.30;8.10;;;;;;;12.57;71.69;101578.61;115791;1191;74537;-74
2021/10/13 10:47:14;;;;;;;14.50;7.50;;;;;;;12.85;69.99;101571.30;115799;1192;71119;-73
2021/10/13 10:49:47;;;;;;;10.80;5.80;;;;;;;12.93;68.12;101572.14;115615;1192;73636;-74
2021/10/13 10:52:16;;;;;;;13.10;6.90;;;;;;;13.08;68.62;101570.83;115751;1192;61633;-74
2021/10/13 10:54:51;;;;;;;17.20;7.00;;;;;;;13.21;67.48;101570.83;115764;1192;60504;-74
2021/10/13 10:57:36;;;;;;;13.70;6.20;;;;;;;13.31;67.40;101573.33;115783;1192;75622;-74
2021/10/13 11:00:06;;;;;;;10.70;5.90;;;;;;;13.48;66.50;101568.26;115771;1192;72261;-74
2021/10/13 11:02:33;;;;;;;10.30;5.80;;;;;;;13.68;65.85;101568.34;115878;1191;72518;-74
2021/10/13 11:05:05;;;;;;;14.70;5.60;;;;;;;13.88;65.78;101571.33;115741;1192;62960;-73
2021/10/13 11:07:36;;;;;;;11.90;4.70;;;;;;;13.86;64.73;101572.64;115787;1191;58984;-73
2021/10/13 11:10:07;;;;;;;9.30;5.20;;;;;;;13.91;64.61;101569.61;115752;1191;74743;-73
2021/10/13 11:12:57;;;;;;;10.20;4.40;;;;;;;13.96;64.27;101574.05;115789;1192;71012;-74
2021/10/13 11:15:26;;;;;;;10.80;3.70;;;;;;;13.94;63.28;101577.14;115713;1192;72645;-73
2021/10/13 11:17:53;;;;;;;9.80;3.70;;;;;;;13.89;63.49;101572.19;115803;1192;61003;-74